Time;durP1;ratioP1;P1;durP2;ratioP2;P2;SDS_P1;SDS_P2;PMS_P1;PMS_P2;Temp;Humidity;BMP_temperature;BMP_pressure;BME280_temperature;BME280_humidity;BME280_pressure;Samples;Min_cycle;Max_cycle;Signal;HPM_P1;HPM_P2
2022/05/09 00:01:50;;;;;;;2.90;2.30;;;19.10;62.00;;;;;;5013282;28;20041;-74
2022/05/09 00:04:16;;;;;;;2.58;2.38;;;19.10;62.00;;;;;;5014290;28;20030;-74
2022/05/09 00:06:42;;;;;;;2.65;2.45;;;19.10;62.10;;;;;;5014474;28;20088;-74
2022/05/09 00:09:07;;;;;;;2.80;2.60;;;19.10;62.10;;;;;;5013165;28;20030;-74
2022/05/09 00:11:33;;;;;;;2.55;2.35;;;19.10;62.10;;;;;;5013226;28;20438;-74
2022/05/09 00:13:59;;;;;;;2.47;2.28;;;19.10;62.10;;;;;;5013132;28;20546;-74
2022/05/09 00:16:25;;;;;;;2.90;2.40;;;19.10;62.10;;;;;;5013249;28;20034;-74
2022/05/09 00:18:51;;;;;;;2.88;2.67;;;19.10;62.10;;;;;;5014119;28;20030;-74
2022/05/09 00:21:16;;;;;;;2.45;2.25;;;19.10;62.10;;;;;;4996786;28;20034;-74
2022/05/09 00:23:42;;;;;;;2.90;2.60;;;19.10;62.10;;;;;;5013912;28;20096;-74
2022/05/09 00:26:08;;;;;;;3.60;2.55;;;19.10;62.00;;;;;;5012893;28;20476;-74
2022/05/09 00:28:34;;;;;;;2.85;2.47;;;19.10;62.00;;;;;;4996838;28;20088;-74
2022/05/09 00:30:59;;;;;;;2.60;2.38;;;19.10;62.00;;;;;;5029320;28;20033;-74
2022/05/09 00:33:25;;;;;;;3.00;2.55;;;19.10;62.10;;;;;;5013872;28;20061;-74
2022/05/09 00:35:51;;;;;;;2.85;2.35;;;19.10;62.00;;;;;;4996414;28;20030;-74
2022/05/09 00:38:17;;;;;;;2.70;2.50;;;19.00;62.00;;;;;;5012645;28;20018;-74
2022/05/09 00:41:28;;;;;;;2.53;2.33;;;19.00;62.00;;;;;;5012475;28;20033;-74
2022/05/09 00:43:34;;;;;;;2.60;2.40;;;19.10;62.00;;;;;;4998749;28;20038;-74
2022/05/09 00:46:00;;;;;;;2.60;2.40;;;19.10;62.10;;;;;;5012432;28;20102;-74
2022/05/09 00:48:26;;;;;;;3.00;2.67;;;19.00;62.00;;;;;;5012443;28;20021;-74
2022/05/09 00:50:51;;;;;;;3.03;2.65;;;19.00;62.00;;;;;;4996172;28;20398;-74
2022/05/09 00:53:17;;;;;;;3.08;2.60;;;19.00;62.00;;;;;;4996265;28;20030;-74
2022/05/09 00:55:54;;;;;;;3.15;2.85;;;19.00;62.00;;;;;;5012416;28;20030;-74
2022/05/09 00:58:40;;;;;;;2.60;2.40;;;19.10;62.00;;;;;;4996222;28;20033;-74
2022/05/09 01:01:07;;;;;;;3.00;2.80;;;19.10;61.90;;;;;;5012189;28;20033;-74
2022/05/09 01:03:37;;;;;;;2.97;2.78;;;19.00;62.10;;;;;;4995600;28;20021;-74
2022/05/09 01:06:03;;;;;;;3.00;2.80;;;19.00;62.10;;;;;;4996154;28;20575;-74
2022/05/09 01:08:28;;;;;;;3.08;2.78;;;19.00;62.00;;;;;;4996018;28;20141;-74
2022/05/09 01:10:54;;;;;;;3.55;2.70;;;19.00;62.10;;;;;;4995700;28;20447;-74
2022/05/09 01:13:21;;;;;;;3.80;2.92;;;19.00;62.00;;;;;;5013339;28;20026;-74
2022/05/09 01:15:48;;;;;;;3.92;2.88;;;19.00;62.00;;;;;;4995824;28;20123;-74
2022/05/09 01:18:16;;;;;;;3.15;2.85;;;19.00;62.00;;;;;;5013198;28;20169;-74
2022/05/09 01:20:42;;;;;;;3.08;2.78;;;19.00;62.00;;;;;;4996005;28;20026;-74
2022/05/09 01:23:10;;;;;;;3.13;2.92;;;19.00;62.00;;;;;;5012033;28;20633;-74
2022/05/09 01:25:36;;;;;;;3.00;2.75;;;19.00;62.00;;;;;;5012051;28;20392;-74
2022/05/09 01:28:01;;;;;;;3.38;3.08;;;19.00;62.00;;;;;;4995547;28;20068;-74
2022/05/09 01:30:45;;;;;;;3.00;2.80;;;19.00;62.00;;;;;;5013124;28;20026;-74
2022/05/09 01:33:10;;;;;;;2.45;2.30;;;19.00;62.00;;;;;;5012919;28;20388;-74
2022/05/09 01:35:51;;;;;;;2.95;2.75;;;19.00;62.00;;;;;;5012976;28;20034;-74
2022/05/09 01:38:19;;;;;;;3.33;2.95;;;19.00;62.00;;;;;;5013003;28;20574;-75
2022/05/09 01:40:44;;;;;;;2.92;2.72;;;19.00;62.00;;;;;;5011736;28;20029;-74
2022/05/09 01:43:10;;;;;;;2.97;2.58;;;19.00;62.10;;;;;;5012790;28;20129;-74
2022/05/09 01:45:35;;;;;;;3.22;2.78;;;19.00;62.00;;;;;;4995147;28;20029;-74
2022/05/09 01:50:46;;;;;;;3.58;3.00;;;19.00;62.00;;;;;;5012753;28;20113;-74
2022/05/09 01:53:11;;;;;;;2.88;2.58;;;18.90;62.00;;;;;;5011739;28;20069;-74
2022/05/09 01:55:37;;;;;;;2.90;2.70;;;18.90;61.90;;;;;;5011590;28;20468;-74
2022/05/09 01:58:04;;;;;;;2.75;2.55;;;18.90;61.90;;;;;;5012753;28;20030;-74
2022/05/09 02:00:32;;;;;;;3.10;2.83;;;18.90;61.90;;;;;;4995376;28;20053;-74
2022/05/09 02:02:59;;;;;;;3.05;2.75;;;18.90;61.90;;;;;;5012623;28;20018;-74
2022/05/09 02:05:24;;;;;;;3.30;3.00;;;18.90;61.90;;;;;;4995366;28;20018;-74
2022/05/09 02:07:50;;;;;;;2.70;2.50;;;18.90;62.00;;;;;;5012687;28;20438;-74
2022/05/09 02:10:16;;;;;;;3.10;2.80;;;18.90;61.90;;;;;;5012652;28;20048;-74
2022/05/09 02:12:42;;;;;;;3.00;2.70;;;18.90;61.90;;;;;;4995208;28;20026;-74
2022/05/09 02:15:08;;;;;;;2.80;2.58;;;18.90;62.00;;;;;;5011195;28;20033;-74
2022/05/09 02:17:34;;;;;;;3.00;2.80;;;18.90;61.90;;;;;;4995242;28;20018;-74
2022/05/09 02:20:00;;;;;;;3.20;3.00;;;18.90;61.90;;;;;;5012462;28;20448;-74
2022/05/09 02:22:26;;;;;;;3.08;2.72;;;18.90;61.90;;;;;;5012545;28;20097;-74
2022/05/09 02:24:52;;;;;;;2.95;2.75;;;18.90;61.90;;;;;;5012493;28;20052;-74
2022/05/09 02:27:18;;;;;;;3.80;3.03;;;18.90;61.90;;;;;;5011414;28;20053;-74
2022/05/09 02:29:43;;;;;;;3.28;2.97;;;18.90;61.90;;;;;;5012283;28;20022;-74
2022/05/09 02:32:10;;;;;;;3.58;3.05;;;18.90;61.90;;;;;;5012348;28;20373;-74
2022/05/09 02:34:35;;;;;;;3.10;2.80;;;18.90;61.90;;;;;;5012395;28;20026;-74
2022/05/09 02:37:01;;;;;;;2.80;2.58;;;18.90;61.90;;;;;;4994898;28;20096;-74
2022/05/09 02:39:27;;;;;;;3.03;2.83;;;18.90;61.90;;;;;;5012238;28;20026;-74
2022/05/09 02:41:53;;;;;;;3.25;2.95;;;18.90;61.80;;;;;;5012237;28;20022;-74
2022/05/09 02:44:19;;;;;;;2.88;2.67;;;18.90;61.90;;;;;;5010549;28;20185;-74
2022/05/09 02:46:44;;;;;;;2.92;2.72;;;18.90;61.90;;;;;;5012310;28;20073;-74
2022/05/09 02:49:10;;;;;;;3.30;3.00;;;18.90;61.90;;;;;;5013242;28;20053;-74
2022/05/09 02:51:36;;;;;;;3.63;3.30;;;18.90;61.90;;;;;;5014566;28;20119;-74
2022/05/09 02:54:02;;;;;;;3.28;2.80;;;18.90;61.90;;;;;;5014659;28;20022;-74
2022/05/09 02:56:28;;;;;;;3.20;2.95;;;18.90;61.90;;;;;;5014561;28;20026;-74
2022/05/09 02:58:53;;;;;;;3.35;2.70;;;18.90;61.90;;;;;;4998138;28;20400;-74
2022/05/09 03:01:19;;;;;;;2.65;2.45;;;18.90;61.90;;;;;;5014731;28;20438;-74
2022/05/09 03:06:29;;;;;;;3.20;2.90;;;18.90;61.90;;;;;;5001079;28;20109;-74
2022/05/09 03:08:55;;;;;;;3.00;2.80;;;18.80;61.80;;;;;;5014330;28;20437;-74
2022/05/09 03:11:21;;;;;;;3.42;3.08;;;18.80;61.80;;;;;;5015619;28;20026;-74
2022/05/09 03:13:47;;;;;;;3.20;2.90;;;18.80;61.80;;;;;;5014210;28;20538;-74
2022/05/09 03:16:12;;;;;;;2.85;2.65;;;18.80;61.80;;;;;;5015126;28;20034;-74
2022/05/09 03:18:38;;;;;;;2.80;2.60;;;18.80;61.80;;;;;;5015536;28;20034;-74
2022/05/09 03:21:04;;;;;;;2.90;2.70;;;18.80;61.80;;;;;;4997932;28;20026;-74
2022/05/09 03:23:30;;;;;;;3.28;2.95;;;18.80;61.70;;;;;;4997986;28;20084;-74
2022/05/09 03:25:56;;;;;;;3.50;3.15;;;18.80;61.70;;;;;;4997794;28;20018;-74
2022/05/09 03:28:24;;;;;;;2.78;2.58;;;18.80;61.70;;;;;;5013748;28;20049;-74
2022/05/09 03:30:51;;;;;;;3.15;2.85;;;18.80;61.80;;;;;;5013983;28;20059;-74
2022/05/09 03:33:17;;;;;;;3.15;2.75;;;18.80;61.80;;;;;;4997905;28;20065;-74
2022/05/09 03:35:43;;;;;;;4.07;3.40;;;18.80;61.70;;;;;;5013903;28;20046;-74
2022/05/09 03:38:09;;;;;;;3.17;2.88;;;18.80;61.70;;;;;;5013888;28;20025;-74
2022/05/09 03:40:34;;;;;;;3.20;2.90;;;18.80;61.70;;;;;;5013827;28;20018;-74
2022/05/09 03:43:00;;;;;;;3.40;3.17;;;18.80;61.70;;;;;;5013226;28;20058;-74
2022/05/09 03:45:27;;;;;;;3.35;2.78;;;18.90;61.90;;;;;;5013673;28;20143;-74
2022/05/09 03:47:53;;;;;;;3.40;3.10;;;18.80;62.80;;;;;;5013881;28;20014;-74
2022/05/09 03:50:19;;;;;;;3.03;2.72;;;18.80;61.70;;;;;;5013585;28;20018;-74
2022/05/09 03:52:45;;;;;;;3.40;3.10;;;18.80;61.70;;;;;;5013572;28;20029;-74
2022/05/09 03:55:12;;;;;;;3.10;2.90;;;18.80;61.70;;;;;;5013736;28;20026;-74
2022/05/09 03:58:04;;;;;;;3.17;2.80;;;18.80;61.70;;;;;;5014511;28;20105;-74
2022/05/09 04:00:33;;;;;;;2.97;2.78;;;18.80;61.50;;;;;;5012940;28;20088;-74
2022/05/09 04:02:59;;;;;;;3.03;2.83;;;18.80;62.20;;;;;;4997301;28;20026;-75
2022/05/09 04:05:30;;;;;;;3.58;3.20;;;18.80;61.80;;;;;;5013370;28;20583;-74
2022/05/09 04:07:57;;;;;;;3.03;2.83;;;18.80;61.80;;;;;;5013395;28;20045;-74
2022/05/09 04:10:24;;;;;;;2.72;2.53;;;18.80;61.80;;;;;;4996909;28;20025;-74
2022/05/09 04:12:50;;;;;;;3.80;2.90;;;18.80;61.80;;;;;;5012979;28;20014;-74
2022/05/09 04:18:00;;;;;;;3.30;3.00;;;18.80;61.80;;;;;;5013295;28;20029;-74
2022/05/09 04:20:26;;;;;;;3.25;2.65;;;18.80;61.80;;;;;;5013056;28;20017;-74
2022/05/09 04:22:52;;;;;;;3.22;3.00;;;18.70;61.80;;;;;;4996855;28;20105;-74
2022/05/09 04:25:19;;;;;;;3.28;2.95;;;18.70;61.70;;;;;;5012835;28;20014;-74
2022/05/09 04:27:45;;;;;;;3.13;2.83;;;18.70;61.70;;;;;;4996693;28;20480;-74
2022/05/09 04:30:11;;;;;;;3.28;2.97;;;18.70;61.70;;;;;;5012819;28;20050;-74
2022/05/09 04:32:37;;;;;;;3.25;3.00;;;18.70;61.70;;;;;;4996815;28;20022;-74
2022/05/09 04:35:03;;;;;;;2.95;2.75;;;18.80;61.80;;;;;;5012621;28;20435;-74
2022/05/09 04:37:29;;;;;;;3.03;2.72;;;18.70;61.70;;;;;;5012905;28;20022;-74
2022/05/09 04:39:55;;;;;;;2.83;2.63;;;18.70;61.70;;;;;;5012628;28;20032;-74
2022/05/09 04:42:21;;;;;;;3.10;2.90;;;18.70;61.70;;;;;;5012392;28;20112;-74
2022/05/09 04:44:47;;;;;;;3.13;2.83;;;18.70;61.70;;;;;;5013666;28;20483;-74
2022/05/09 04:47:13;;;;;;;3.30;3.00;;;18.70;61.70;;;;;;5013744;28;20083;-74
2022/05/09 04:49:39;;;;;;;3.28;2.97;;;18.70;61.70;;;;;;5012731;28;20014;-74
2022/05/09 04:52:05;;;;;;;2.85;2.65;;;18.70;61.70;;;;;;5012548;28;20053;-74
2022/05/09 04:54:31;;;;;;;3.13;2.83;;;18.70;61.60;;;;;;4995882;28;20377;-74
2022/05/09 04:56:56;;;;;;;2.95;2.60;;;18.70;61.70;;;;;;5012182;28;20052;-74
2022/05/09 04:59:22;;;;;;;3.33;3.03;;;18.70;61.70;;;;;;5013629;28;20025;-74
2022/05/09 05:01:48;;;;;;;3.40;3.10;;;18.70;61.70;;;;;;5013301;28;20041;-74
2022/05/09 05:04:16;;;;;;;3.13;2.92;;;18.70;61.70;;;;;;5012233;28;20018;-74
2022/05/09 05:06:41;;;;;;;2.90;2.53;;;18.70;61.70;;;;;;5012243;28;20419;-74
2022/05/09 05:09:07;;;;;;;3.33;3.05;;;18.70;61.70;;;;;;4995802;28;20499;-74
2022/05/09 05:11:32;;;;;;;3.20;2.90;;;18.70;61.70;;;;;;5011543;28;20080;-74
2022/05/09 05:13:58;;;;;;;3.30;3.00;;;18.70;61.80;;;;;;5012000;28;20467;-74
2022/05/09 05:16:59;;;;;;;2.58;2.38;;;18.70;61.70;;;;;;5012014;28;20113;-74
2022/05/09 05:19:09;;;;;;;3.40;3.10;;;18.70;61.70;;;;;;5013048;28;20034;-74
2022/05/09 05:21:35;;;;;;;3.15;2.88;;;18.70;61.70;;;;;;5011985;28;20041;-74
2022/05/09 05:24:00;;;;;;;3.17;2.90;;;18.70;61.70;;;;;;5012934;28;20018;-74
2022/05/09 05:26:26;;;;;;;3.53;2.80;;;18.70;61.70;;;;;;5013106;28;20523;-74
2022/05/09 05:28:52;;;;;;;2.78;2.58;;;18.60;61.70;;;;;;5012897;28;20048;-74
2022/05/09 05:31:18;;;;;;;2.58;2.38;;;18.70;61.70;;;;;;5011806;28;20030;-74
2022/05/09 05:33:44;;;;;;;2.88;2.67;;;18.70;61.70;;;;;;4995782;28;20026;-74
2022/05/09 05:36:10;;;;;;;2.88;2.67;;;18.70;61.70;;;;;;5011791;28;20036;-74
2022/05/09 05:38:35;;;;;;;2.90;2.70;;;18.70;61.70;;;;;;5012776;28;20029;-74
2022/05/09 05:41:02;;;;;;;2.97;2.67;;;18.70;61.70;;;;;;5011664;28;20034;-74
2022/05/09 05:43:28;;;;;;;2.90;2.67;;;18.70;61.70;;;;;;5012676;28;20052;-74
2022/05/09 05:45:55;;;;;;;3.00;2.70;;;18.70;61.70;;;;;;5011409;28;20042;-74
2022/05/09 05:48:21;;;;;;;2.80;2.50;;;18.70;61.70;;;;;;5012739;28;20484;-74
2022/05/09 05:50:47;;;;;;;2.80;2.60;;;18.70;61.70;;;;;;5012857;28;20033;-74
2022/05/09 05:53:12;;;;;;;3.30;3.00;;;18.70;61.70;;;;;;5011502;28;20065;-74
2022/05/09 05:55:38;;;;;;;2.70;2.50;;;18.70;61.70;;;;;;4995352;28;20060;-74
2022/05/09 05:58:04;;;;;;;2.70;2.50;;;18.70;61.70;;;;;;5012626;28;20061;-74
2022/05/09 06:00:29;;;;;;;3.33;2.83;;;18.60;61.60;;;;;;5011494;28;20069;-74
2022/05/09 06:02:55;;;;;;;2.88;2.67;;;18.60;61.60;;;;;;5012831;28;20050;-74
2022/05/09 06:05:21;;;;;;;2.60;2.40;;;18.60;61.60;;;;;;5012649;28;20096;-74
2022/05/09 06:07:52;;;;;;;3.10;2.90;;;18.60;61.60;;;;;;5011276;28;20060;-74
2022/05/09 06:10:18;;;;;;;2.40;2.20;;;18.70;61.70;;;;;;4995708;28;20029;-74
2022/05/09 06:12:44;;;;;;;3.35;2.53;;;18.60;61.60;;;;;;5011487;28;20026;-74
2022/05/09 06:15:25;;;;;;;3.78;3.00;;;18.60;61.60;;;;;;4995196;28;20419;-74
2022/05/09 06:17:51;;;;;;;2.80;2.60;;;18.60;61.60;;;;;;5011747;28;20022;-74
2022/05/09 06:20:17;;;;;;;3.45;3.15;;;18.60;61.70;;;;;;4994943;28;20113;-74
2022/05/09 06:22:42;;;;;;;2.92;2.72;;;18.60;61.60;;;;;;5012613;28;20097;-74
2022/05/09 06:25:13;;;;;;;3.08;2.80;;;18.60;61.70;;;;;;4998789;28;20696;-74
2022/05/09 06:27:40;;;;;;;2.72;2.53;;;18.60;61.60;;;;;;4998984;28;20018;-74
2022/05/09 06:30:08;;;;;;;3.00;2.80;;;18.60;61.60;;;;;;5015140;28;20022;-74
2022/05/09 06:32:33;;;;;;;3.10;2.80;;;18.60;61.60;;;;;;4998782;28;20443;-74
2022/05/09 06:35:07;;;;;;;2.70;2.50;;;18.60;61.60;;;;;;4998730;28;20033;-74
2022/05/09 06:37:33;;;;;;;2.75;2.55;;;18.60;61.50;;;;;;5014493;28;20484;-74
2022/05/09 06:39:59;;;;;;;2.85;2.60;;;18.60;61.60;;;;;;5014904;28;20029;-74
2022/05/09 06:42:27;;;;;;;2.72;2.53;;;18.60;61.60;;;;;;5015636;28;20025;-74
2022/05/09 06:44:53;;;;;;;2.60;2.40;;;18.60;61.60;;;;;;5030984;28;20030;-74
2022/05/09 06:47:19;;;;;;;2.60;2.40;;;18.60;61.60;;;;;;5014785;28;20018;-74
2022/05/09 06:49:44;;;;;;;2.67;2.47;;;18.60;61.60;;;;;;4998326;28;20526;-74
2022/05/09 06:52:10;;;;;;;2.70;2.50;;;18.60;61.60;;;;;;5015498;28;20036;-74
2022/05/09 06:54:35;;;;;;;2.90;2.70;;;18.60;61.60;;;;;;5015824;28;20026;-74
2022/05/09 06:57:01;;;;;;;2.90;2.70;;;18.60;61.60;;;;;;5015660;28;20030;-74
2022/05/09 06:59:27;;;;;;;2.70;2.50;;;18.60;61.60;;;;;;5014491;28;20029;-74
2022/05/09 07:01:53;;;;;;;3.00;2.70;;;18.60;61.70;;;;;;5015664;28;20081;-74
2022/05/09 07:04:18;;;;;;;3.05;2.78;;;18.60;61.60;;;;;;5015467;28;20575;-74
2022/05/09 07:06:44;;;;;;;3.10;2.42;;;18.60;61.60;;;;;;5014266;28;20093;-74
2022/05/09 07:09:11;;;;;;;2.88;2.67;;;18.60;61.70;;;;;;5015477;28;20407;-74
2022/05/09 07:11:37;;;;;;;2.92;2.72;;;18.60;61.60;;;;;;5014344;28;20399;-74
2022/05/09 07:14:03;;;;;;;2.70;2.50;;;18.60;61.70;;;;;;4998047;28;20022;-74
2022/05/09 07:16:29;;;;;;;2.83;2.63;;;18.60;61.60;;;;;;5015328;28;20084;-74
2022/05/09 07:18:54;;;;;;;3.42;2.80;;;18.60;61.70;;;;;;5014292;28;20038;-74
2022/05/09 07:21:20;;;;;;;2.60;2.40;;;18.60;61.70;;;;;;5014949;28;20105;-74
2022/05/09 07:23:45;;;;;;;2.75;2.47;;;18.60;61.60;;;;;;5014100;28;20104;-74
2022/05/09 07:26:11;;;;;;;2.83;2.63;;;18.60;61.60;;;;;;5014012;28;20022;-74
2022/05/09 07:28:37;;;;;;;3.45;2.60;;;18.60;61.60;;;;;;5015151;28;20030;-74
2022/05/09 07:31:03;;;;;;;2.85;2.60;;;18.60;61.60;;;;;;5013853;28;20056;-74
2022/05/09 07:33:28;;;;;;;4.68;2.50;;;18.60;61.70;;;;;;4997427;28;20041;-74
2022/05/09 07:35:55;;;;;;;3.08;2.65;;;18.60;61.70;;;;;;5013241;28;20499;-74
2022/05/09 07:38:20;;;;;;;2.45;2.30;;;18.60;61.70;;;;;;4997558;28;20029;-74
2022/05/09 07:40:47;;;;;;;3.05;2.85;;;18.60;61.70;;;;;;5014781;28;20029;-74
2022/05/09 07:43:23;;;;;;;2.72;2.53;;;18.60;61.70;;;;;;5014631;28;20037;-74
2022/05/09 07:45:51;;;;;;;2.50;2.30;;;18.60;61.60;;;;;;5013660;28;20476;-74
2022/05/09 07:48:19;;;;;;;3.03;2.83;;;18.60;62.70;;;;;;5013394;28;20045;-74
2022/05/09 07:50:44;;;;;;;2.75;2.55;;;18.60;61.70;;;;;;4997427;28;20018;-74
2022/05/09 07:53:12;;;;;;;2.50;2.30;;;18.60;61.70;;;;;;5014768;28;20025;-74
2022/05/09 07:55:39;;;;;;;3.03;2.58;;;18.60;61.70;;;;;;4997463;28;20025;-74
2022/05/09 07:58:04;;;;;;;3.63;2.67;;;18.60;61.70;;;;;;5014508;28;20446;-74
2022/05/09 08:00:30;;;;;;;2.75;2.55;;;18.60;61.70;;;;;;5013267;28;20026;-74
2022/05/09 08:02:56;;;;;;;2.78;2.55;;;18.60;61.70;;;;;;5013224;28;20116;-74
2022/05/09 08:05:21;;;;;;;3.30;2.63;;;18.60;61.70;;;;;;5014481;28;20048;-74
2022/05/09 08:07:47;;;;;;;3.00;2.80;;;18.60;61.70;;;;;;5014372;28;20029;-74
2022/05/09 08:10:15;;;;;;;2.88;2.67;;;18.60;61.70;;;;;;5013086;28;20037;-74
2022/05/09 08:12:41;;;;;;;2.63;2.42;;;18.60;61.70;;;;;;4997117;28;20080;-74
2022/05/09 08:15:07;;;;;;;2.80;2.60;;;18.60;61.70;;;;;;5013218;28;20038;-74
2022/05/09 08:17:33;;;;;;;3.03;2.83;;;18.60;61.70;;;;;;5013985;28;20017;-74
2022/05/09 08:19:58;;;;;;;2.85;2.65;;;18.60;61.70;;;;;;5014278;28;20030;-74
2022/05/09 08:22:28;;;;;;;2.95;2.65;;;18.60;61.70;;;;;;5013931;28;20096;-74
2022/05/09 08:25:00;;;;;;;2.63;2.40;;;18.60;61.70;;;;;;4997214;28;20480;-74
2022/05/09 08:27:25;;;;;;;2.63;2.42;;;18.60;61.80;;;;;;5013035;28;20060;-74
2022/05/09 08:29:54;;;;;;;2.85;2.65;;;18.60;61.80;;;;;;5014152;28;20030;-74
2022/05/09 08:32:20;;;;;;;2.67;2.47;;;18.60;61.80;;;;;;5013734;28;20112;-74
2022/05/09 08:34:46;;;;;;;2.88;2.60;;;18.60;61.70;;;;;;5012656;28;20030;-74
2022/05/09 08:37:11;;;;;;;2.60;2.40;;;18.60;61.70;;;;;;5012750;28;20049;-74
2022/05/09 08:39:37;;;;;;;2.78;2.58;;;18.60;61.80;;;;;;5013789;28;20037;-74
2022/05/09 08:42:05;;;;;;;2.75;2.55;;;18.60;61.70;;;;;;5012681;28;20026;-74
2022/05/09 08:44:56;;;;;;;3.97;2.53;;;18.60;61.80;;;;;;4996203;28;20053;-74
2022/05/09 08:47:49;;;;;;;2.80;2.60;;;18.60;61.60;;;;;;5012502;28;20045;-74
2022/05/09 08:50:39;;;;;;;2.85;2.65;;;18.60;61.80;;;;;;5012617;28;20522;-74
2022/05/09 08:53:38;;;;;;;2.70;2.50;;;18.60;61.70;;;;;;5012471;28;20084;-74
2022/05/09 08:56:04;;;;;;;2.95;2.67;;;18.60;61.70;;;;;;5012358;28;20049;-74
2022/05/09 08:58:39;;;;;;;3.13;2.65;;;18.50;61.90;;;;;;4996081;28;20391;-74
2022/05/09 09:01:14;;;;;;;3.05;2.75;;;18.60;61.90;;;;;;5012082;28;20633;-74
2022/05/09 09:03:43;;;;;;;3.15;2.80;;;18.60;61.90;;;;;;4996340;28;20546;-74
2022/05/09 09:06:23;;;;;;;2.97;2.78;;;18.60;61.90;;;;;;5012210;28;20030;-74
2022/05/09 09:09:02;;;;;;;3.17;2.88;;;18.60;61.90;;;;;;5012265;28;20495;-74
2022/05/09 09:11:37;;;;;;;2.92;2.33;;;18.60;61.90;;;;;;5012165;28;20085;-74
2022/05/09 09:14:14;;;;;;;3.75;2.83;;;18.60;61.90;;;;;;5012187;28;20018;-74
2022/05/09 09:16:59;;;;;;;3.15;2.80;;;18.60;61.90;;;;;;5012955;28;20030;-74
2022/05/09 09:19:48;;;;;;;3.13;2.78;;;18.60;61.80;;;;;;5013094;28;20048;-74
2022/05/09 09:22:32;;;;;;;2.70;2.50;;;18.60;61.90;;;;;;5012037;28;20033;-74
2022/05/09 09:25:40;;;;;;;2.78;2.58;;;18.60;61.90;;;;;;5013058;28;20072;-74
2022/05/09 09:28:10;;;;;;;2.75;2.55;;;18.60;61.90;;;;;;4998202;28;20474;-74
2022/05/09 09:30:36;;;;;;;2.20;2.10;;;18.50;62.00;;;;;;5013064;28;20022;-74
2022/05/09 09:33:04;;;;;;;2.50;2.30;;;18.50;62.00;;;;;;5011754;28;20026;-74
2022/05/09 09:35:44;;;;;;;2.40;2.20;;;18.50;61.90;;;;;;4995471;28;20113;-74
2022/05/09 09:38:47;;;;;;;2.75;2.55;;;18.60;61.90;;;;;;5011833;28;20045;-74
2022/05/09 09:41:20;;;;;;;3.08;2.25;;;18.60;61.90;;;;;;5012899;28;20542;-74
2022/05/09 09:43:45;;;;;;;2.33;2.13;;;18.60;62.00;;;;;;5011371;28;20400;-74
2022/05/09 09:46:11;;;;;;;2.40;2.20;;;18.50;62.00;;;;;;5011734;28;20049;-74
2022/05/09 09:48:37;;;;;;;2.50;2.30;;;18.60;62.10;;;;;;5011690;28;20060;-74
2022/05/09 09:51:05;;;;;;;2.90;2.50;;;18.60;62.00;;;;;;5012792;28;20495;-74
2022/05/09 09:53:50;;;;;;;2.50;2.30;;;18.60;62.00;;;;;;4995409;28;20030;-74
2022/05/09 09:56:22;;;;;;;2.60;2.40;;;18.60;62.00;;;;;;5011823;28;20030;-74
2022/05/09 09:58:49;;;;;;;2.70;2.50;;;18.60;62.00;;;;;;5015877;28;20036;-74
2022/05/09 10:01:25;;;;;;;2.50;2.30;;;18.60;62.00;;;;;;5017036;28;20048;-74
2022/05/09 10:04:10;;;;;;;2.50;2.30;;;18.60;62.00;;;;;;5015562;28;20029;-74
2022/05/09 10:07:16;;;;;;;2.50;2.30;;;18.60;62.00;;;;;;5016739;28;20022;-74
2022/05/09 10:09:59;;;;;;;2.35;2.15;;;18.60;61.90;;;;;;4984661;28;20045;-74
2022/05/09 10:12:29;;;;;;;2.60;2.40;;;18.60;62.10;;;;;;4994834;28;20030;-74
2022/05/09 10:14:55;;;;;;;2.60;2.08;;;18.60;62.10;;;;;;4978499;28;20034;-74
2022/05/09 10:17:25;;;;;;;2.33;2.13;;;18.60;62.20;;;;;;4978501;28;20041;-74
2022/05/09 10:19:51;;;;;;;2.38;2.20;;;18.60;62.10;;;;;;4979042;28;20049;-74
2022/05/09 10:25:17;;;;;;;2.70;2.40;;;18.60;62.00;;;;;;4967838;28;20470;-74
2022/05/09 10:27:44;;;;;;;2.28;2.08;;;18.60;62.20;;;;;;4962355;28;20030;-74
2022/05/09 10:30:29;;;;;;;2.53;2.33;;;18.60;62.10;;;;;;4962373;28;20018;-74
2022/05/09 10:33:04;;;;;;;2.60;2.40;;;18.60;62.00;;;;;;4994388;28;20117;-74
2022/05/09 10:35:42;;;;;;;2.47;2.28;;;18.60;62.10;;;;;;4963363;28;20023;-74
2022/05/09 10:38:30;;;;;;;2.83;2.40;;;18.60;62.00;;;;;;4962422;28;20410;-74
2022/05/09 10:41:03;;;;;;;2.40;2.20;;;18.60;62.20;;;;;;4980618;28;20089;-74
2022/05/09 10:43:31;;;;;;;;;;;18.60;62.20;;;;;;4963576;28;20050;-74
2022/05/09 10:45:57;;;;;;;2.42;2.22;;;18.60;62.20;;;;;;5000620;28;19924;-74
2022/05/09 10:48:49;;;;;;;2.42;2.22;;;18.50;62.40;;;;;;5014743;28;20091;-74
2022/05/09 10:51:21;;;;;;;2.55;2.40;;;18.60;62.20;;;;;;5014983;28;20038;-74
2022/05/09 10:54:01;;;;;;;;;;;18.60;62.30;;;;;;5015042;28;20502;-74
2022/05/09 10:56:49;;;;;;;2.55;2.35;;;18.50;62.20;;;;;;5014722;28;20012;-74
2022/05/09 10:59:24;;;;;;;2.47;2.28;;;18.50;62.50;;;;;;5015787;28;20105;-74
2022/05/09 11:02:07;;;;;;;2.42;2.22;;;18.50;62.40;;;;;;4998495;28;20028;-74
2022/05/09 11:04:34;;;;;;;2.40;2.20;;;18.60;62.30;;;;;;5014593;28;20101;-74
2022/05/09 11:07:00;;;;;;;2.00;1.90;;;18.60;62.30;;;;;;4998073;28;20080;-74
2022/05/09 11:09:37;;;;;;;2.60;2.40;;;18.60;62.30;;;;;;5014445;28;20029;-74
2022/05/09 11:12:27;;;;;;;2.83;2.30;;;18.60;62.30;;;;;;5015285;28;20059;-74
2022/05/09 11:15:15;;;;;;;2.50;2.30;;;18.60;62.20;;;;;;5015487;28;20555;-74
2022/05/09 11:18:12;;;;;;;2.58;2.38;;;18.60;62.30;;;;;;5014340;28;20068;-74
2022/05/09 11:20:51;;;;;;;2.70;2.50;;;18.70;62.30;;;;;;5015471;28;20053;-74
2022/05/09 11:23:32;;;;;;;2.78;2.20;;;18.60;62.30;;;;;;4998185;28;20025;-74
2022/05/09 11:26:24;;;;;;;2.78;2.25;;;18.70;62.30;;;;;;4998215;28;20058;-74
2022/05/09 11:29:17;;;;;;;2.65;2.45;;;18.60;62.20;;;;;;5014087;28;20037;-74
2022/05/09 11:31:52;;;;;;;2.55;2.35;;;18.60;62.30;;;;;;5014932;28;20037;-74
2022/05/09 11:34:36;;;;;;;2.97;2.20;;;18.60;62.30;;;;;;5013895;28;20049;-74
2022/05/09 11:37:23;;;;;;;2.60;2.40;;;18.60;62.30;;;;;;5015020;28;20029;-74
2022/05/09 11:40:01;;;;;;;2.78;2.50;;;18.60;62.20;;;;;;5014954;28;20029;-74
2022/05/09 11:45:35;;;;;;;;;;;18.70;62.40;;;;;;5015359;28;20045;-74
2022/05/09 11:48:18;;;;;;;2.30;2.10;;;18.60;62.40;;;;;;5014956;28;19931;-74
2022/05/09 11:50:46;;;;;;;2.60;2.40;;;18.60;62.50;;;;;;5013595;28;20052;-74
2022/05/09 11:53:12;;;;;;;2.40;2.20;;;18.60;62.60;;;;;;5014935;28;20538;-74
2022/05/09 11:55:39;;;;;;;2.10;2.00;;;18.60;62.50;;;;;;5012996;28;20030;-74
2022/05/09 11:58:05;;;;;;;2.28;2.08;;;18.60;62.50;;;;;;4997469;28;20064;-74
2022/05/09 12:00:34;;;;;;;2.53;2.25;;;18.70;62.40;;;;;;5013536;28;20025;-74
2022/05/09 12:03:00;;;;;;;2.30;2.20;;;18.70;62.40;;;;;;5014581;28;20029;-74
2022/05/09 12:05:26;;;;;;;2.60;2.40;;;18.70;62.40;;;;;;5013458;28;20018;-74
2022/05/09 12:08:14;;;;;;;2.97;2.03;;;18.70;62.40;;;;;;5014553;28;20590;-74
2022/05/09 12:10:41;;;;;;;2.22;2.03;;;18.70;62.20;;;;;;5012902;28;20018;-74
2022/05/09 12:13:11;;;;;;;2.40;2.08;;;18.70;62.40;;;;;;4980899;28;20396;-74
2022/05/09 12:15:40;;;;;;;3.05;2.40;;;18.70;62.30;;;;;;5013230;28;20175;-74
2022/05/09 12:18:23;;;;;;;2.30;2.10;;;18.70;62.30;;;;;;5014135;28;20040;-74
2022/05/09 12:20:50;;;;;;;2.30;2.10;;;18.70;62.30;;;;;;5012730;28;20022;-74
2022/05/09 12:23:44;;;;;;;2.25;2.05;;;18.70;62.40;;;;;;5014225;28;20044;-74
2022/05/09 12:26:26;;;;;;;2.55;2.10;;;18.80;62.20;;;;;;5013964;28;20022;-74
2022/05/09 12:28:51;;;;;;;2.40;2.20;;;18.70;62.40;;;;;;4998543;28;20084;-74
2022/05/09 12:31:41;;;;;;;2.50;2.30;;;18.70;62.40;;;;;;5013983;28;20476;-74
2022/05/09 12:34:09;;;;;;;2.20;2.00;;;18.80;62.30;;;;;;5013905;28;20598;-74
2022/05/09 12:36:35;;;;;;;3.78;2.20;;;18.70;62.40;;;;;;5012810;28;20104;-74
2022/05/09 12:39:21;;;;;;;2.65;2.00;;;18.70;62.40;;;;;;4996290;28;20096;-74
2022/05/09 12:41:53;;;;;;;2.22;2.08;;;18.80;62.20;;;;;;5013336;28;20069;-74
2022/05/09 12:44:45;;;;;;;2.15;2.05;;;18.80;62.40;;;;;;4996629;28;20099;-74
2022/05/09 12:47:33;;;;;;;2.40;2.20;;;18.80;62.20;;;;;;5011036;28;20113;-74
2022/05/09 12:50:02;;;;;;;2.50;2.30;;;18.80;62.30;;;;;;4996901;28;20030;-74
2022/05/09 12:52:31;;;;;;;2.53;2.30;;;18.80;62.50;;;;;;4996561;28;20029;-74
2022/05/09 12:57:42;;;;;;;2.63;1.98;;;18.80;62.40;;;;;;4998768;28;20045;-74
2022/05/09 13:00:11;;;;;;;2.75;2.25;;;18.80;62.50;;;;;;5013502;28;20030;-74
2022/05/09 13:02:36;;;;;;;2.60;2.40;;;18.80;62.40;;;;;;4996059;28;20026;-74
2022/05/09 13:05:02;;;;;;;2.20;2.00;;;18.80;62.50;;;;;;5012186;28;20099;-74
2022/05/09 13:07:28;;;;;;;2.13;1.92;;;18.80;62.40;;;;;;5011942;28;20022;-74
2022/05/09 13:09:54;;;;;;;2.50;2.30;;;18.80;62.40;;;;;;5013365;28;20029;-74
2022/05/09 13:12:29;;;;;;;3.03;2.38;;;18.80;62.40;;;;;;5012213;28;20140;-74
2022/05/09 13:15:06;;;;;;;2.40;2.20;;;18.90;62.40;;;;;;5011958;28;20057;-74
2022/05/09 13:17:41;;;;;;;3.13;2.28;;;18.90;62.40;;;;;;4995820;28;20451;-74
2022/05/09 13:20:09;;;;;;;2.20;2.10;;;18.90;62.50;;;;;;4996113;28;20022;-74